createdAt,value
2018-03-16T11:49:41.365Z,1005.43
2018-03-16T11:50:41.296Z,1005.4
2018-03-16T11:51:40.940Z,1005.31
2018-03-16T11:52:41.245Z,1005.35
2018-03-16T11:53:40.982Z,1005.27
2018-03-16T11:54:41.018Z,1005.29
2018-03-16T11:55:41.019Z,1005.37
2018-03-16T11:56:41.416Z,1005.35
2018-03-16T11:57:41.493Z,1005.39
2018-03-16T11:58:41.653Z,1005.48
2018-03-16T11:59:42.071Z,1005.4
2018-03-16T12:00:42.631Z,1005.34
2018-03-16T12:01:42.315Z,1005.28
2018-03-16T12:02:42.402Z,1005.32
2018-03-16T12:03:42.440Z,1005.27
2018-03-16T12:04:42.512Z,1005.36
2018-03-16T12:05:42.496Z,1005.31
2018-03-16T12:06:42.516Z,1005.32
2018-03-16T12:07:42.689Z,1005.21
2018-03-16T12:08:42.974Z,1005.44
2018-03-16T12:09:43.064Z,1005.42
2018-03-16T12:10:43.153Z,1005.37
2018-03-16T12:11:43.085Z,1005.31
2018-03-16T12:12:43.124Z,1005.32
2018-03-16T12:13:43.506Z,1005.33
2018-03-16T12:14:43.548Z,1005.23
2018-03-16T12:15:43.559Z,1005.25
2018-03-16T12:16:43.987Z,1005.29
2018-03-16T12:17:44.414Z,1005.34
2018-03-16T12:18:44.791Z,1005.3
2018-03-16T12:19:44.834Z,1005.28
2018-03-16T12:20:44.854Z,1005.25
2018-03-16T12:21:44.881Z,1005.24
2018-03-16T12:22:44.879Z,1005.3
2018-03-16T12:23:44.922Z,1005.3
2018-03-16T12:24:45.326Z,1005.29
2018-03-16T12:25:45.332Z,1005.3
2018-03-16T12:26:45.423Z,1005.31
2018-03-16T12:27:45.605Z,1005.26
2018-03-16T12:28:50.917Z,1005.29
2018-03-16T12:29:51.016Z,1005.35
2018-03-16T12:30:51.030Z,1005.36
2018-03-16T12:31:51.255Z,1005.38
2018-03-16T12:32:51.688Z,1005.35
2018-03-16T12:33:51.754Z,1005.35
2018-03-16T12:34:52.156Z,1005.27
2018-03-16T12:35:52.548Z,1005.3
2018-03-16T12:36:52.565Z,1005.34
2018-03-16T12:37:52.987Z,1005.35
2018-03-16T12:38:53.000Z,1005.3
2018-03-16T12:39:53.153Z,1005.34
2018-03-16T12:40:53.171Z,1005.38
2018-03-16T12:41:53.209Z,1005.4
2018-03-16T12:42:53.346Z,1005.41
2018-03-16T12:43:53.643Z,1005.34
2018-03-16T12:44:53.580Z,1005.4
2018-03-16T12:45:53.764Z,1005.38
2018-03-16T12:46:53.617Z,1005.31
2018-03-16T12:47:53.705Z,1005.3
2018-03-16T12:48:53.655Z,1005.32
2018-03-16T12:49:53.659Z,1005.39
2018-03-16T12:50:53.818Z,1005.39
2018-03-16T12:51:54.053Z,1005.35
2018-03-16T12:52:53.854Z,1005.32
2018-03-16T12:53:54.284Z,1005.36
2018-03-16T12:54:54.293Z,1005.33
2018-03-16T12:55:54.321Z,1005.38
2018-03-16T12:56:54.339Z,1005.34
2018-03-16T12:57:54.682Z,1005.39
2018-03-16T12:58:54.842Z,1005.36
2018-03-16T12:59:54.740Z,1005.35
2018-03-16T14:00:12.354Z,1005.62
2018-03-16T14:01:21.697Z,1005.66
2018-03-16T16:00:13.778Z,1006.53
2018-03-16T16:02:30.511Z,1006.59
2018-03-16T16:03:30.769Z,1006.58
2018-03-16T16:04:30.509Z,1006.56
2018-03-16T16:05:30.785Z,1006.58
2018-03-16T16:06:30.801Z,1006.63
2018-03-16T16:07:30.936Z,1006.6
2018-03-16T16:08:31.298Z,1006.63
2018-03-16T16:09:31.313Z,1006.62
2018-03-16T16:10:31.593Z,1006.68
2018-03-16T16:11:31.619Z,1006.64
2018-03-16T16:12:31.796Z,1006.65
2018-03-16T16:13:31.678Z,1006.7
2018-03-16T16:14:31.715Z,1006.77
2018-03-16T16:15:31.737Z,1006.78
2018-03-16T16:16:31.896Z,1006.73
2018-03-16T16:17:31.927Z,1006.72
2018-03-16T16:18:31.933Z,1006.75
2018-03-16T16:19:32.098Z,1006.83
2018-03-16T16:20:32.121Z,1006.91
2018-03-16T16:21:32.135Z,1006.83
2018-03-16T16:22:32.166Z,1006.8
2018-03-16T16:23:32.163Z,1006.77
2018-03-16T16:24:32.203Z,1006.96
2018-03-16T16:25:32.438Z,1006.9
2018-03-16T16:26:32.569Z,1006.83
2018-03-16T16:27:32.576Z,1006.9
2018-03-16T16:28:33.031Z,1006.87
2018-03-16T16:29:33.059Z,1006.9
2018-03-16T16:30:33.076Z,1006.92
2018-03-16T16:31:33.116Z,1006.93
2018-03-16T16:32:33.170Z,1006.96
2018-03-16T16:33:33.123Z,1006.86
2018-03-16T16:34:33.157Z,1006.92
2018-03-16T16:35:33.293Z,1006.92
2018-03-16T16:36:33.306Z,1006.97
2018-03-16T16:37:33.337Z,1006.95
2018-03-16T16:38:33.532Z,1006.91
2018-03-16T16:39:33.714Z,1006.94
2018-03-16T16:40:33.754Z,1007.06
2018-03-16T16:41:33.911Z,1007.01
2018-03-16T16:42:34.428Z,1007.04
2018-03-16T16:43:34.754Z,1007.06
2018-03-16T16:44:34.757Z,1007.09
2018-03-16T16:45:35.079Z,1007
2018-03-16T16:46:35.083Z,1007.12
2018-03-16T16:47:35.099Z,1007.1
2018-03-16T16:48:35.101Z,1007.17
2018-03-16T16:49:35.141Z,1007.13
2018-03-16T16:50:35.629Z,1007.11
2018-03-16T16:51:35.650Z,1007.16
2018-03-16T16:52:35.784Z,1007.15
2018-03-16T16:53:35.803Z,1007.21
2018-03-16T16:54:35.898Z,1007.2
2018-03-16T16:55:35.840Z,1007.29
2018-03-16T16:56:35.836Z,1007.3
2018-03-16T16:57:36.294Z,1007.31
2018-03-16T16:58:36.333Z,1007.28
2018-03-16T16:59:36.339Z,1007.24
2018-03-16T20:00:06.482Z,1009.36
2018-03-16T20:01:06.575Z,1009.36
2018-03-16T20:02:06.923Z,1009.38
2018-03-16T20:03:06.889Z,1009.24
2018-03-16T20:04:06.914Z,1009.32
2018-03-16T20:05:07.295Z,1009.31
2018-03-16T20:06:07.286Z,1009.31
2018-03-16T20:07:07.722Z,1009.36
2018-03-16T20:08:07.909Z,1009.31
2018-03-16T20:09:08.251Z,1009.31
2018-03-16T20:10:08.255Z,1009.3
2018-03-16T20:11:08.375Z,1009.27
2018-03-16T20:12:08.385Z,1009.33
2018-03-16T20:13:08.422Z,1009.26
2018-03-16T20:14:08.447Z,1009.34
2018-03-16T20:15:08.470Z,1009.28
2018-03-16T20:16:08.988Z,1009.41
2018-03-16T20:17:08.638Z,1009.38
2018-03-16T20:18:08.599Z,1009.4
2018-03-16T20:19:08.674Z,1009.27
2018-03-16T20:20:08.546Z,1009.3
2018-03-16T20:21:09.017Z,1009.28
2018-03-16T20:22:09.007Z,1009.29
2018-03-16T20:23:09.175Z,1009.43
2018-03-16T20:24:09.347Z,1009.29
2018-03-16T20:25:09.369Z,1009.33
2018-03-16T20:26:09.553Z,1009.29
2018-03-16T20:27:09.572Z,1009.3
2018-03-16T20:28:09.631Z,1009.36
2018-03-16T20:29:10.353Z,1009.32
2018-03-16T20:30:10.223Z,1009.25
2018-03-16T20:31:10.322Z,1009.3
2018-03-16T20:32:10.082Z,1009.3
2018-03-16T20:33:10.121Z,1009.38
2018-03-16T20:34:10.272Z,1009.27
2018-03-16T20:35:10.663Z,1009.31
2018-03-16T20:36:10.614Z,1009.36
2018-03-16T20:37:10.607Z,1009.42
2018-03-16T20:38:10.750Z,1009.29
2018-03-16T20:39:10.634Z,1009.34
2018-03-16T20:40:11.010Z,1009.35
2018-03-16T20:41:11.015Z,1009.32
2018-03-16T20:42:11.048Z,1009.29
2018-03-16T20:43:11.042Z,1009.32
2018-03-16T20:44:11.485Z,1009.31
2018-03-16T20:45:11.542Z,1009.35
2018-03-16T20:46:11.520Z,1009.39
2018-03-16T20:47:11.541Z,1009.33
2018-03-16T20:48:11.644Z,1009.31
2018-03-16T20:49:11.661Z,1009.39
2018-03-16T20:50:11.677Z,1009.4
2018-03-16T20:51:11.854Z,1009.29
2018-03-16T20:52:11.833Z,1009.45
2018-03-16T20:53:11.858Z,1009.38
2018-03-16T20:54:12.291Z,1009.41
2018-03-16T20:55:12.408Z,1009.42
2018-03-16T20:56:12.429Z,1009.46
2018-03-16T20:57:12.450Z,1009.39
2018-03-16T20:58:12.468Z,1009.45
2018-03-16T20:59:12.499Z,1009.43
2018-03-16T21:00:12.562Z,1009.52
2018-03-16T21:01:12.522Z,1009.72
2018-03-16T21:02:13.808Z,1009.64
2018-03-16T21:03:12.638Z,1009.54
2018-03-16T21:04:13.132Z,1009.58
2018-03-16T21:05:14.560Z,1009.5
2018-03-16T21:06:14.120Z,1009.66
2018-03-16T21:07:14.365Z,1009.55
2018-03-16T21:08:14.156Z,1009.63
2018-03-16T21:09:14.836Z,1009.7
2018-03-16T21:10:14.382Z,1009.71
2018-03-16T21:11:14.173Z,1009.64
2018-03-16T21:12:14.251Z,1009.65
2018-03-16T21:13:14.261Z,1009.63
2018-03-16T21:14:14.228Z,1009.71
2018-03-16T21:15:14.248Z,1009.73
2018-03-16T21:16:14.266Z,1009.62
2018-03-16T21:17:14.274Z,1009.72
2018-03-16T21:18:14.314Z,1009.74
2018-03-16T21:19:14.332Z,1009.74
2018-03-16T21:20:14.549Z,1009.7
2018-03-16T21:21:14.373Z,1009.64
2018-03-16T21:22:14.604Z,1009.75
2018-03-16T21:23:14.445Z,1009.94
2018-03-16T21:24:14.584Z,1009.84
2018-03-16T21:25:14.596Z,1009.8
2018-03-16T21:26:14.617Z,1009.83
2018-03-16T21:27:14.635Z,1009.8
2018-03-16T21:28:14.733Z,1009.76
2018-03-16T21:29:15.284Z,1009.85
2018-03-16T21:30:14.698Z,1009.85
